createdAt,value
2022-09-14T00:01:14.331Z,99576.56
2022-09-14T00:03:40.053Z,99572.31
2022-09-14T00:06:09.390Z,99571.44
2022-09-14T00:08:36.533Z,99570.69
2022-09-14T00:11:09.273Z,99571.63
2022-09-14T00:13:36.821Z,99570.81
2022-09-14T00:16:06.671Z,99567.44
2022-09-14T00:18:35.606Z,99558.44
2022-09-14T00:21:05.347Z,99557.28
2022-09-14T00:23:33.690Z,99555.53
2022-09-14T00:26:09.054Z,99553.00
2022-09-14T00:28:39.782Z,99557.38
2022-09-14T00:31:08.767Z,99553.16
2022-09-14T00:33:38.380Z,99551.53
2022-09-14T00:36:09.103Z,99538.56
2022-09-14T00:38:36.909Z,99530.84
2022-09-14T00:41:04.971Z,99525.69
2022-09-14T00:43:31.821Z,99522.31
2022-09-14T00:46:02.377Z,99525.78
2022-09-14T00:48:30.327Z,99526.72
2022-09-14T00:50:57.373Z,99518.06
2022-09-14T00:53:24.025Z,99518.94
2022-09-14T00:55:54.058Z,99515.53
2022-09-14T00:58:21.535Z,99509.47
2022-09-14T01:00:48.313Z,99505.19
2022-09-14T01:03:14.997Z,99505.19
2022-09-14T01:14:34.767Z,99495.75
2022-09-14T01:28:07.148Z,99474.34
2022-09-14T01:30:36.935Z,99470.88
2022-09-14T01:33:14.142Z,99476.13
2022-09-14T01:35:49.299Z,99470.13
2022-09-14T01:41:01.985Z,99468.38
2022-09-14T01:43:59.897Z,99467.75
2022-09-14T01:46:34.358Z,99462.47
2022-09-14T01:49:12.061Z,99462.47
2022-09-14T01:56:58.119Z,99465.16
2022-09-14T01:59:27.912Z,99462.53
2022-09-14T02:02:02.985Z,99460.84
2022-09-14T02:04:44.730Z,99456.59
2022-09-14T02:07:11.602Z,99455.72
2022-09-14T02:09:38.853Z,99454.06
2022-09-14T02:12:05.913Z,99451.44
2022-09-14T02:14:32.692Z,99448.06
2022-09-14T02:16:59.701Z,99450.69
2022-09-14T02:19:33.512Z,99457.66
2022-09-14T02:22:00.130Z,99450.78
2022-09-14T02:24:27.409Z,99443.00
2022-09-14T02:26:56.741Z,99441.28
2022-09-14T02:29:23.420Z,99441.34
2022-09-14T02:32:04.809Z,99438.00
2022-09-14T02:39:56.819Z,99421.63
2022-09-14T02:51:19.333Z,99430.34
2022-09-14T02:59:11.264Z,99423.59
2022-09-14T03:01:38.222Z,99419.44
2022-09-14T03:04:04.820Z,99419.59
2022-09-14T03:06:31.558Z,99424.00
2022-09-14T03:08:58.629Z,99422.41
2022-09-14T03:11:25.194Z,99418.16
2022-09-14T03:13:51.868Z,99415.66
2022-09-14T03:16:18.613Z,99415.72
2022-09-14T03:18:45.288Z,99419.25
2022-09-14T03:21:15.295Z,99420.19
2022-09-14T03:23:45.462Z,99417.66
2022-09-14T03:26:15.842Z,99410.78
2022-09-14T03:28:42.908Z,99401.31
2022-09-14T03:31:10.966Z,99412.66
2022-09-14T03:33:37.820Z,99410.22
2022-09-14T03:36:20.709Z,99409.59
2022-09-14T03:38:48.834Z,99407.31
2022-09-14T03:41:15.878Z,99399.19
2022-09-14T03:43:43.428Z,99397.44
2022-09-14T03:46:12.430Z,99397.44
2022-09-14T03:48:39.281Z,99396.59
2022-09-14T03:51:07.821Z,99403.53
2022-09-14T03:53:34.831Z,99400.09
2022-09-14T03:56:01.549Z,99406.19
2022-09-14T03:58:32.117Z,99405.31
2022-09-14T04:01:05.075Z,99411.47
2022-09-14T04:03:31.994Z,99409.75
2022-09-14T04:05:58.777Z,99406.31
2022-09-14T04:08:25.443Z,99403.78
2022-09-14T04:10:52.292Z,99403.84
2022-09-14T04:13:18.890Z,99409.94
2022-09-14T04:15:55.476Z,99403.94
2022-09-14T04:18:22.150Z,99404.03
2022-09-14T04:21:04.510Z,99398.06
2022-09-14T04:23:36.576Z,99405.91
2022-09-14T04:26:18.094Z,99399.03
2022-09-14T04:28:45.605Z,99393.00
2022-09-14T04:31:13.335Z,99388.72
2022-09-14T04:33:43.018Z,99393.06
2022-09-14T04:36:13.868Z,99390.50
2022-09-14T04:38:42.130Z,99393.16
2022-09-14T04:41:12.054Z,99392.31
2022-09-14T04:43:39.474Z,99394.97
2022-09-14T04:46:09.956Z,99392.44
2022-09-14T04:48:37.061Z,99388.25
2022-09-14T04:51:07.049Z,99396.09
2022-09-14T04:53:34.169Z,99396.53
2022-09-14T04:56:01.646Z,99397.22
2022-09-14T04:58:29.132Z,99393.78
2022-09-14T05:01:01.936Z,99386.88
2022-09-14T05:03:28.479Z,99387.78
2022-09-14T05:05:55.114Z,99390.41
2022-09-14T05:08:21.643Z,99391.28
2022-09-14T05:10:48.176Z,99393.06
2022-09-14T05:13:16.189Z,99386.19
2022-09-14T05:15:42.732Z,99392.28
2022-09-14T05:18:09.274Z,99394.03
2022-09-14T05:20:35.831Z,99390.69
2022-09-14T05:23:02.369Z,99390.72
2022-09-14T05:25:29.130Z,99382.97
2022-09-14T05:27:55.649Z,99384.78
2022-09-14T05:30:22.190Z,99392.56
2022-09-14T05:32:48.704Z,99388.28
2022-09-14T05:35:15.346Z,99378.75
2022-09-14T05:37:41.876Z,99377.03
2022-09-14T05:40:09.184Z,99381.34
2022-09-14T05:42:35.827Z,99377.06
2022-09-14T05:45:02.527Z,99375.38
2022-09-14T05:47:30.589Z,99378.88
2022-09-14T05:49:58.053Z,99379.72
2022-09-14T05:52:24.639Z,99389.25
2022-09-14T05:54:51.166Z,99395.28
2022-09-14T05:57:17.698Z,99396.13
2022-09-14T05:59:44.296Z,99396.13
2022-09-14T06:02:13.513Z,99395.25
2022-09-14T06:04:41.911Z,99389.16
2022-09-14T06:07:18.374Z,99395.19
2022-09-14T06:09:45.877Z,99395.16
2022-09-14T06:12:14.605Z,99395.06
2022-09-14T06:14:41.123Z,99398.47
2022-09-14T06:17:07.666Z,99399.28
2022-09-14T06:19:34.257Z,99402.69
2022-09-14T06:22:01.083Z,99398.28
2022-09-14T06:24:27.684Z,99392.13
2022-09-14T06:26:54.246Z,99391.25
2022-09-14T06:29:20.798Z,99390.38
2022-09-14T06:31:47.323Z,99398.13
2022-09-14T06:34:13.813Z,99403.28
2022-09-14T06:36:40.328Z,99397.22
2022-09-14T06:39:06.889Z,99405.84
2022-09-14T06:41:34.412Z,99398.03
2022-09-14T06:44:01.905Z,99393.66
2022-09-14T06:46:31.381Z,99397.09
2022-09-14T06:49:06.085Z,99403.13
2022-09-14T06:51:38.305Z,99404.00
2022-09-14T06:54:05.730Z,99394.41
2022-09-14T06:56:35.530Z,99403.94
2022-09-14T06:59:02.995Z,99397.00
2022-09-14T07:01:30.067Z,99403.06
2022-09-14T07:03:58.336Z,99394.38
2022-09-14T07:06:26.999Z,99395.25
2022-09-14T07:08:54.593Z,99402.38
2022-09-14T07:11:23.894Z,99408.63
2022-09-14T07:13:50.637Z,99397.56
2022-09-14T07:16:17.548Z,99405.47
2022-09-14T07:18:44.570Z,99408.34
2022-09-14T07:21:15.120Z,99407.44
2022-09-14T07:23:44.277Z,99405.47
2022-09-14T07:28:53.917Z,99406.16
2022-09-14T07:31:28.567Z,99405.50
2022-09-14T07:33:57.938Z,99408.19
2022-09-14T07:36:25.838Z,99401.53
2022-09-14T07:38:53.660Z,99404.59
2022-09-14T07:41:21.730Z,99407.53
2022-09-14T07:43:50.087Z,99411.47
2022-09-14T07:46:17.097Z,99415.53
2022-09-14T07:48:43.794Z,99405.72
2022-09-14T07:51:11.428Z,99412.72
2022-09-14T07:53:40.567Z,99401.81
2022-09-14T07:56:08.565Z,99401.47
2022-09-14T07:58:35.734Z,99405.72
2022-09-14T08:01:12.113Z,99403.31
2022-09-14T08:03:42.107Z,99385.41
2022-09-14T08:06:13.143Z,99386.63
2022-09-14T08:08:42.083Z,99393.34
2022-09-14T08:11:12.674Z,99377.78
2022-09-14T08:13:42.236Z,99385.13
2022-09-14T08:16:09.932Z,99380.66
2022-09-14T08:18:38.322Z,99387.44
2022-09-14T08:21:07.062Z,99387.13
2022-09-14T08:23:34.650Z,99392.81
2022-09-14T08:26:11.161Z,99385.38
2022-09-14T08:28:38.536Z,99386.09
2022-09-14T08:33:44.800Z,99378.72
2022-09-14T08:36:13.762Z,99386.50
2022-09-14T08:38:40.363Z,99392.66
2022-09-14T08:41:16.289Z,99397.59
2022-09-14T08:43:42.760Z,99398.69
2022-09-14T08:46:19.741Z,99386.88
2022-09-14T08:48:49.208Z,99387.81
2022-09-14T08:51:15.998Z,99396.03
2022-09-14T08:53:43.077Z,99389.78
2022-09-14T08:56:16.155Z,99392.44
2022-09-14T09:07:37.103Z,99403.50
2022-09-14T09:10:05.847Z,99408.03
2022-09-14T09:12:44.902Z,99400.72
2022-09-14T09:15:21.779Z,99402.81
2022-09-14T09:17:52.765Z,99399.00
2022-09-14T09:20:24.150Z,99402.13
2022-09-14T09:25:44.849Z,99395.03
2022-09-14T09:28:13.462Z,99390.00
2022-09-14T09:30:41.419Z,99385.19
2022-09-14T09:33:16.959Z,99388.72
2022-09-14T09:35:43.776Z,99389.47
2022-09-14T09:38:16.209Z,99386.56
2022-09-14T09:40:48.085Z,99387.59
2022-09-14T09:43:28.992Z,99394.06
2022-09-14T09:46:03.254Z,99389.69
2022-09-14T09:48:45.914Z,99392.16
2022-09-14T09:51:15.805Z,99390.84
2022-09-14T09:53:48.824Z,99393.38
2022-09-14T09:56:20.030Z,99388.16
2022-09-14T09:58:51.550Z,99382.41
2022-09-14T10:01:28.966Z,99387.22
2022-09-14T10:04:24.839Z,99397.50
2022-09-14T10:06:54.431Z,99399.31
2022-09-14T10:09:23.434Z,99393.03
2022-09-14T10:12:00.682Z,99392.28
2022-09-14T10:17:18.187Z,99389.91
2022-09-14T10:19:53.970Z,99387.47
2022-09-14T10:30:41.449Z,99375.25
2022-09-14T10:33:13.160Z,99372.66
2022-09-14T10:41:05.125Z,99367.81
2022-09-14T10:46:13.949Z,99360.34
2022-09-14T10:54:27.177Z,99366.22
2022-09-14T10:57:20.905Z,99366.16
2022-09-14T11:26:50.345Z,99363.13
2022-09-14T11:35:03.980Z,99362.78
2022-09-14T11:37:39.594Z,99357.78
2022-09-14T11:42:57.280Z,99369.34
2022-09-14T11:45:30.181Z,99371.75
2022-09-14T11:48:12.466Z,99364.06
2022-09-14T11:50:57.607Z,99371.13
2022-09-14T11:53:25.805Z,99380.09
2022-09-14T11:55:52.511Z,99370.00
2022-09-14T11:58:23.727Z,99369.09
2022-09-14T12:03:52.243Z,99375.47
2022-09-14T12:11:55.133Z,99378.34
2022-09-14T12:19:38.269Z,99370.63
2022-09-14T12:27:42.866Z,99366.53
2022-09-14T12:44:33.065Z,99363.31
2022-09-14T13:47:34.322Z,99337.03
2022-09-14T13:50:01.343Z,99329.72
2022-09-14T13:52:57.163Z,99334.16
2022-09-14T13:55:28.349Z,99328.44
2022-09-14T13:58:21.167Z,99321.19
2022-09-14T14:03:40.406Z,99320.44
2022-09-14T14:06:28.191Z,99330.16
2022-09-14T14:09:05.684Z,99319.09
2022-09-14T14:28:23.605Z,99324.13
2022-09-14T14:30:50.812Z,99323.47
2022-09-14T14:33:19.237Z,99312.41
2022-09-14T14:35:48.690Z,99309.25
2022-09-14T14:38:16.226Z,99311.28
2022-09-14T14:40:43.283Z,99307.31
2022-09-14T14:43:18.730Z,99308.31
2022-09-14T14:45:46.160Z,99309.38
2022-09-14T14:48:12.834Z,99317.59
2022-09-14T14:50:39.451Z,99314.47
2022-09-14T14:53:06.792Z,99312.25
2022-09-14T14:55:35.567Z,99308.19
2022-09-14T14:58:08.688Z,99321.66
2022-09-14T15:00:38.446Z,99310.66
2022-09-14T15:03:05.213Z,99315.66
2022-09-14T15:05:32.505Z,99313.38
2022-09-14T15:07:59.243Z,99322.50
2022-09-14T15:10:27.661Z,99320.13
2022-09-14T15:12:54.841Z,99323.25
2022-09-14T15:15:24.801Z,99326.31
2022-09-14T15:17:52.630Z,99330.28
2022-09-14T15:20:20.020Z,99323.88
2022-09-14T15:22:47.934Z,99333.06
2022-09-14T15:25:15.738Z,99333.41
2022-09-14T15:27:42.296Z,99330.22
2022-09-14T15:30:10.472Z,99327.84
2022-09-14T15:32:37.053Z,99336.03
2022-09-14T15:35:05.322Z,99344.84
2022-09-14T15:37:32.016Z,99348.69
2022-09-14T15:39:58.702Z,99345.22
2022-09-14T15:42:25.702Z,99348.97
2022-09-14T15:44:52.212Z,99343.69
2022-09-14T15:47:18.751Z,99351.75
2022-09-14T15:49:45.334Z,99347.66
2022-09-14T15:52:12.526Z,99352.53
2022-09-14T15:54:39.430Z,99346.16
2022-09-14T15:57:10.107Z,99348.38
2022-09-14T15:59:36.766Z,99349.66
2022-09-14T16:02:04.016Z,99353.53
2022-09-14T16:04:36.852Z,99362.72
2022-09-14T16:07:05.426Z,99354.16
2022-09-14T16:09:32.039Z,99364.75
2022-09-14T16:12:01.808Z,99364.91
2022-09-14T16:14:28.740Z,99363.22
2022-09-14T16:16:55.428Z,99365.91
2022-09-14T16:19:22.041Z,99364.31
2022-09-14T16:21:53.458Z,99372.19
2022-09-14T16:24:22.126Z,99375.94
2022-09-14T16:26:48.657Z,99368.19
2022-09-14T16:29:17.348Z,99370.16
2022-09-14T16:31:45.686Z,99373.03
2022-09-14T16:34:17.426Z,99371.56
2022-09-14T16:36:44.822Z,99377.03
2022-09-14T16:39:14.491Z,99377.03
2022-09-14T16:41:42.273Z,99376.28
2022-09-14T16:44:13.035Z,99400.00
2022-09-14T16:46:39.675Z,99386.94
2022-09-14T16:49:06.955Z,99388.72
2022-09-14T16:51:35.744Z,99389.72
2022-09-14T16:54:02.458Z,99390.22
2022-09-14T16:56:31.709Z,99393.94
2022-09-14T16:58:59.942Z,99398.63
2022-09-14T17:04:09.607Z,99395.41
2022-09-14T17:06:38.497Z,99399.19
2022-09-14T17:09:08.574Z,99396.72
2022-09-14T17:11:36.956Z,99396.19
2022-09-14T17:14:04.845Z,99392.88
2022-09-14T17:16:31.524Z,99389.59
2022-09-14T17:19:00.671Z,99389.78
2022-09-14T17:21:30.446Z,99388.22
2022-09-14T17:23:57.188Z,99384.03
2022-09-14T17:26:24.332Z,99380.81
2022-09-14T17:28:54.165Z,99383.66
2022-09-14T17:31:24.111Z,99382.09
2022-09-14T17:33:53.138Z,99386.78
2022-09-14T17:36:20.828Z,99385.22
2022-09-14T17:38:48.537Z,99396.78
2022-09-14T17:41:18.445Z,99400.50
2022-09-14T17:43:45.205Z,99395.53
2022-09-14T17:46:14.772Z,99395.78
2022-09-14T17:48:42.072Z,99403.91
2022-09-14T17:51:11.961Z,99393.78
2022-09-14T17:53:39.930Z,99397.47
2022-09-14T17:56:08.564Z,99398.31
2022-09-14T17:58:35.817Z,99406.41
2022-09-14T18:03:42.964Z,99420.72
2022-09-14T18:06:11.952Z,99422.72
2022-09-14T18:08:39.960Z,99429.94
2022-09-14T18:11:10.695Z,99426.53
2022-09-14T18:13:41.783Z,99425.09
2022-09-14T18:16:09.114Z,99430.63
2022-09-14T18:18:35.731Z,99436.25
2022-09-14T18:21:02.471Z,99440.06
2022-09-14T18:23:29.540Z,99440.38
2022-09-14T18:25:56.617Z,99436.41
2022-09-14T18:28:24.650Z,99448.13
2022-09-14T18:31:00.762Z,99448.69
2022-09-14T18:33:27.623Z,99449.78
2022-09-14T18:35:54.416Z,99456.53
2022-09-14T18:38:21.002Z,99458.50
2022-09-14T18:40:48.396Z,99463.97
2022-09-14T18:43:16.848Z,99467.00
2022-09-14T18:45:44.680Z,99468.13
2022-09-14T18:48:11.613Z,99471.03
2022-09-14T18:50:40.067Z,99474.84
2022-09-14T18:53:06.971Z,99474.28
2022-09-14T18:55:34.090Z,99473.63
2022-09-14T18:58:01.195Z,99476.50
2022-09-14T19:00:28.200Z,99491.63
2022-09-14T19:02:56.103Z,99488.41
2022-09-14T19:05:24.163Z,99497.28
2022-09-14T19:07:50.725Z,99505.34
2022-09-14T19:10:17.848Z,99508.19
2022-09-14T19:12:44.888Z,99512.72
2022-09-14T19:15:12.254Z,99512.94
2022-09-14T19:17:38.915Z,99514.84
2022-09-14T19:20:07.501Z,99512.41
2022-09-14T19:22:34.835Z,99521.28
2022-09-14T19:25:01.575Z,99522.34
2022-09-14T19:27:28.502Z,99534.59
2022-09-14T19:29:55.101Z,99538.22
2022-09-14T19:32:21.958Z,99541.84
2022-09-14T19:34:49.554Z,99545.47
2022-09-14T19:37:16.224Z,99543.88
2022-09-14T19:39:42.999Z,99544.88
2022-09-14T19:42:09.598Z,99546.75
2022-09-14T19:44:36.149Z,99555.53
2022-09-14T19:47:02.809Z,99551.34
2022-09-14T19:49:29.375Z,99554.97
2022-09-14T19:51:56.635Z,99551.56
2022-09-14T19:54:23.243Z,99554.31
2022-09-14T19:56:50.328Z,99553.59
2022-09-14T19:59:16.957Z,99551.09
2022-09-14T20:01:44.373Z,99554.69
2022-09-14T20:04:11.432Z,99560.91
2022-09-14T20:06:42.181Z,99566.22
2022-09-14T20:09:27.666Z,99572.44
2022-09-14T20:11:54.534Z,99572.59
2022-09-14T20:14:23.735Z,99574.38
2022-09-14T20:16:52.807Z,99578.81
2022-09-14T20:19:22.158Z,99573.69
2022-09-14T20:21:50.616Z,99577.22
2022-09-14T20:24:20.024Z,99581.63
2022-09-14T20:26:48.347Z,99574.72
2022-09-14T20:29:15.725Z,99588.63
2022-09-14T20:31:42.664Z,99584.31
2022-09-14T20:34:09.383Z,99586.03
2022-09-14T20:36:36.023Z,99588.63
2022-09-14T20:39:03.619Z,99592.94
2022-09-14T20:41:33.950Z,99592.94
2022-09-14T20:44:01.123Z,99590.38
2022-09-14T20:49:05.966Z,99596.19
2022-09-14T20:51:32.586Z,99599.59
2022-09-14T20:53:59.101Z,99606.72
2022-09-14T20:56:28.349Z,99599.91
2022-09-14T20:58:58.982Z,99597.38
2022-09-14T21:01:28.238Z,99602.63
2022-09-14T21:03:55.479Z,99600.16
2022-09-14T21:06:24.587Z,99600.16
2022-09-14T21:08:51.862Z,99596.84
2022-09-14T21:11:21.843Z,99599.44
2022-09-14T21:13:48.746Z,99604.34
2022-09-14T21:16:19.090Z,99604.88
2022-09-14T21:18:48.116Z,99614.47
2022-09-14T21:21:18.974Z,99609.25
2022-09-14T21:23:48.353Z,99610.94
2022-09-14T21:26:15.514Z,99610.13
2022-09-14T21:28:42.144Z,99600.59
2022-09-14T21:31:14.641Z,99606.72
2022-09-14T21:33:44.916Z,99606.72
2022-09-14T21:36:14.902Z,99597.19
2022-09-14T21:38:42.172Z,99594.63
2022-09-14T21:41:10.896Z,99600.78
2022-09-14T21:43:39.398Z,99597.34
2022-09-14T21:46:07.227Z,99594.78
2022-09-14T21:48:34.713Z,99604.47
2022-09-14T21:51:03.425Z,99602.72
2022-09-14T21:53:30.172Z,99608.00
2022-09-14T21:55:56.887Z,99608.97
2022-09-14T21:58:23.430Z,99599.50
2022-09-14T22:00:56.658Z,99603.94
2022-09-14T22:03:23.626Z,99615.31
2022-09-14T22:06:08.689Z,99613.75
2022-09-14T22:08:35.895Z,99608.44
2022-09-14T22:11:05.154Z,99601.50
2022-09-14T22:13:32.195Z,99602.44
2022-09-14T22:15:59.589Z,99604.16
2022-09-14T22:18:26.551Z,99613.75
2022-09-14T22:20:58.398Z,99613.75
2022-09-14T22:23:25.275Z,99618.94
2022-09-14T22:25:52.393Z,99617.13
2022-09-14T22:28:20.037Z,99615.41
2022-09-14T22:30:49.914Z,99619.66
2022-09-14T22:33:16.529Z,99617.03
2022-09-14T22:35:53.384Z,99623.94
2022-09-14T22:38:22.254Z,99620.34
2022-09-14T22:40:58.307Z,99623.91
2022-09-14T22:43:25.961Z,99624.63
2022-09-14T22:45:52.611Z,99623.78
2022-09-14T22:48:19.897Z,99621.97
2022-09-14T22:50:48.615Z,99629.75
2022-09-14T22:53:15.892Z,99624.53
2022-09-14T22:55:44.066Z,99630.63
2022-09-14T22:58:12.426Z,99628.81
2022-09-14T23:00:40.187Z,99632.31
2022-09-14T23:03:07.712Z,99637.53
2022-09-14T23:05:36.037Z,99640.09
2022-09-14T23:08:04.757Z,99648.78
2022-09-14T23:10:31.455Z,99647.03
2022-09-14T23:12:59.010Z,99649.59
2022-09-14T23:15:25.561Z,99646.94
2022-09-14T23:17:52.339Z,99640.00
2022-09-14T23:20:19.000Z,99645.22
2022-09-14T23:22:45.667Z,99647.81
2022-09-14T23:25:12.497Z,99645.25
2022-09-14T23:27:39.033Z,99649.59
2022-09-14T23:30:06.259Z,99646.06
2022-09-14T23:32:32.869Z,99644.38
2022-09-14T23:34:59.408Z,99641.78
2022-09-14T23:37:25.936Z,99633.94
2022-09-14T23:39:52.535Z,99646.16
2022-09-14T23:42:19.114Z,99641.81
2022-09-14T23:44:45.755Z,99648.75
2022-09-14T23:47:12.286Z,99649.59
2022-09-14T23:49:38.797Z,99655.72
2022-09-14T23:52:05.310Z,99658.31
2022-09-14T23:54:32.254Z,99660.03
2022-09-14T23:56:58.846Z,99654.81
2022-09-14T23:59:25.478Z,99653.09
